Time;durP1;ratioP1;P1;durP2;ratioP2;P2;SDS_P1;SDS_P2;PMS_P1;PMS_P2;Temp;Humidity;BMP_temperature;BMP_pressure;BME280_temperature;BME280_humidity;BME280_pressure;Samples;Min_cycle;Max_cycle;Signal;HPM_P1;HPM_P2
2021/06/21 00:00:13;;;;;;;5.17;3.40;;;18.20;99.90;;;;;;5034638;28;20197;-76
2021/06/21 00:02:39;;;;;;;4.07;3.10;;;18.10;99.90;;;;;;5036339;28;20295;-78
2021/06/21 00:05:05;;;;;;;5.03;3.23;;;18.10;99.90;;;;;;5036982;28;20436;-76
2021/06/21 00:07:31;;;;;;;6.17;2.90;;;18.10;99.90;;;;;;5031890;28;20676;-76
2021/06/21 00:09:57;;;;;;;11.70;3.23;;;18.10;99.90;;;;;;5041233;28;20559;-76
2021/06/21 00:12:22;;;;;;;8.40;3.53;;;18.00;99.90;;;;;;5033924;28;20213;-76
2021/06/21 00:14:48;;;;;;;7.03;3.23;;;18.00;99.90;;;;;;5041780;28;20187;-76
2021/06/21 00:17:16;;;;;;;5.13;2.80;;;18.00;99.90;;;;;;5034669;28;20190;-76
2021/06/21 00:19:42;;;;;;;3.87;2.30;;;18.00;99.90;;;;;;5044511;28;20261;-76
2021/06/21 00:22:08;;;;;;;10.60;3.50;;;18.00;99.90;;;;;;5027169;28;20978;-76
2021/06/21 00:24:33;;;;;;;4.17;3.13;;;18.00;99.90;;;;;;5034427;28;20444;-76
2021/06/21 00:26:59;;;;;;;6.70;3.07;;;18.00;99.90;;;;;;5041112;28;20197;-76
2021/06/21 00:29:25;;;;;;;7.47;3.17;;;17.90;99.90;;;;;;5036316;28;20206;-77
2021/06/21 00:31:51;;;;;;;5.30;2.80;;;17.90;99.90;;;;;;5041065;28;20214;-76
2021/06/21 00:34:16;;;;;;;7.40;3.00;;;17.90;99.90;;;;;;5037366;28;20190;-76
2021/06/21 00:36:42;;;;;;;5.43;3.03;;;17.90;99.90;;;;;;5032714;28;20212;-77
2021/06/21 00:39:09;;;;;;;8.40;2.70;;;17.80;99.90;;;;;;5035518;28;20182;-77
2021/06/21 00:41:36;;;;;;;6.43;2.50;;;17.80;99.90;;;;;;5029663;28;20245;-77
2021/06/21 00:44:03;;;;;;;7.33;3.07;;;17.70;99.90;;;;;;5026684;28;20445;-76
2021/06/21 00:46:28;;;;;;;6.37;2.80;;;17.80;99.90;;;;;;5028678;28;20420;-77
2021/06/21 00:48:54;;;;;;;4.60;2.40;;;17.70;99.90;;;;;;5032986;28;20851;-76
2021/06/21 00:51:20;;;;;;;5.93;2.40;;;17.70;99.90;;;;;;5040513;28;20567;-77
2021/06/21 00:53:46;;;;;;;4.70;1.77;;;17.70;99.90;;;;;;5037299;28;20242;-76
2021/06/21 00:56:13;;;;;;;5.60;2.57;;;17.70;99.90;;;;;;5037138;28;20949;-76
2021/06/21 00:58:39;;;;;;;7.73;3.30;;;17.70;99.90;;;;;;5037534;28;20442;-77
2021/06/21 01:01:06;;;;;;;4.80;2.23;;;17.70;99.90;;;;;;5045189;28;21011;-76
2021/06/21 01:03:31;;;;;;;9.30;2.67;;;17.70;99.90;;;;;;5037078;28;20942;-77
2021/06/21 01:05:57;;;;;;;3.77;2.10;;;17.70;99.90;;;;;;5022391;28;20430;-76
2021/06/21 01:08:23;;;;;;;7.70;3.30;;;17.70;99.90;;;;;;5041078;28;20207;-76
2021/06/21 01:10:51;;;;;;;5.83;2.50;;;17.70;99.90;;;;;;5035424;28;20186;-77
2021/06/21 01:13:37;;;;;;;4.00;2.40;;;17.70;99.90;;;;;;5036977;28;20237;-76
2021/06/21 01:16:19;;;;;;;3.67;3.30;;;17.70;99.90;;;;;;5033810;28;20822;-76
2021/06/21 01:18:53;;;;;;;11.13;2.93;;;17.70;99.90;;;;;;5041650;28;20486;-77
2021/06/21 01:21:49;;;;;;;4.00;2.20;;;17.70;99.90;;;;;;5038260;28;20417;-76
2021/06/21 01:24:36;;;;;;;7.63;2.70;;;17.70;99.90;;;;;;5026727;28;20450;-76
2021/06/21 01:27:41;;;;;;;4.33;2.03;;;17.60;99.90;;;;;;5038443;28;20439;-76
2021/06/21 01:30:10;;;;;;;4.43;3.37;;;17.60;99.90;;;;;;5023104;28;20472;-76
2021/06/21 01:32:50;;;;;;;3.90;2.70;;;17.60;99.90;;;;;;5035095;28;20543;-76
2021/06/21 01:35:38;;;;;;;9.47;2.53;;;17.60;99.90;;;;;;5038751;28;20989;-78
2021/06/21 01:38:09;;;;;;;5.33;2.33;;;17.60;99.90;;;;;;5038031;28;20954;-76
2021/06/21 01:40:47;;;;;;;7.47;2.30;;;17.60;99.90;;;;;;5034638;28;20425;-75
2021/06/21 01:43:16;;;;;;;5.60;2.70;;;17.60;99.90;;;;;;5032642;28;21011;-77
2021/06/21 01:45:43;;;;;;;9.17;3.17;;;17.60;99.90;;;;;;5039400;28;20436;-76
2021/06/21 01:48:11;;;;;;;4.07;3.37;;;17.60;99.90;;;;;;5037094;28;20487;-76
2021/06/21 01:50:38;;;;;;;5.83;3.10;;;17.60;99.90;;;;;;5032512;28;20872;-77
2021/06/21 01:53:14;;;;;;;7.60;2.97;;;17.60;99.90;;;;;;5038755;28;20444;-77
2021/06/21 01:55:45;;;;;;;6.90;3.10;;;17.60;99.90;;;;;;5033226;28;20471;-76
2021/06/21 01:58:12;;;;;;;5.10;3.13;;;17.60;99.90;;;;;;5027959;28;20421;-76
2021/06/21 02:00:39;;;;;;;7.60;2.67;;;17.60;99.90;;;;;;5019621;28;20982;-76
2021/06/21 02:03:06;;;;;;;5.70;2.80;;;17.60;99.90;;;;;;5038258;28;20519;-76
2021/06/21 02:05:34;;;;;;;6.40;3.13;;;17.60;99.90;;;;;;5023661;28;20431;-76
2021/06/21 02:08:01;;;;;;;8.80;2.87;;;17.60;99.90;;;;;;5037046;28;20421;-76
2021/06/21 02:10:27;;;;;;;6.80;3.53;;;17.60;99.90;;;;;;5031987;28;20447;-77
2021/06/21 02:12:54;;;;;;;5.90;2.93;;;17.60;99.90;;;;;;5042093;28;20586;-76
2021/06/21 02:15:22;;;;;;;6.90;3.00;;;17.60;99.90;;;;;;5037763;28;20583;-76
2021/06/21 02:17:49;;;;;;;7.60;3.53;;;17.60;99.90;;;;;;5042468;28;20432;-77
2021/06/21 02:20:16;;;;;;;6.33;3.43;;;17.60;99.90;;;;;;5037495;28;20433;-78
2021/06/21 02:22:42;;;;;;;6.97;2.90;;;17.50;99.90;;;;;;5023133;28;20490;-78
2021/06/21 02:25:08;;;;;;;7.43;3.67;;;17.50;99.90;;;;;;5039429;28;20421;-77
2021/06/21 02:27:37;;;;;;;6.30;3.30;;;17.60;99.90;;;;;;5035818;28;20762;-76
2021/06/21 02:30:06;;;;;;;7.33;3.10;;;17.60;99.90;;;;;;5040436;28;20435;-77
2021/06/21 02:32:32;;;;;;;7.90;3.17;;;17.50;99.90;;;;;;5035594;28;20442;-77
2021/06/21 02:34:57;;;;;;;3.97;2.20;;;17.50;99.90;;;;;;5035585;28;20426;-77
2021/06/21 02:37:23;;;;;;;10.57;3.57;;;17.50;99.90;;;;;;5035905;28;20180;-77
2021/06/21 02:39:49;;;;;;;9.30;2.90;;;17.50;99.90;;;;;;5035128;28;20183;-78
2021/06/21 02:42:15;;;;;;;6.70;2.27;;;17.50;99.90;;;;;;5041403;28;20195;-77
2021/06/21 02:44:40;;;;;;;6.37;2.50;;;17.50;99.90;;;;;;5045499;28;20422;-76
2021/06/21 02:47:06;;;;;;;9.13;2.37;;;17.50;99.90;;;;;;5037804;28;20209;-79
2021/06/21 02:49:34;;;;;;;6.13;2.30;;;17.50;99.90;;;;;;5041334;28;20256;-78
2021/06/21 02:52:02;;;;;;;5.60;2.50;;;17.50;99.90;;;;;;5037916;28;20477;-76
2021/06/21 02:54:40;;;;;;;5.33;2.57;;;17.50;99.90;;;;;;5022606;28;20417;-78
2021/06/21 02:57:21;;;;;;;9.20;3.10;;;17.40;99.90;;;;;;5044730;28;20472;-76
2021/06/21 02:59:47;;;;;;;6.90;3.23;;;17.50;99.90;;;;;;5042875;28;20414;-78
2021/06/21 03:02:15;;;;;;;10.07;3.77;;;17.40;99.90;;;;;;5041508;28;20495;-78
2021/06/21 03:04:42;;;;;;;5.63;3.00;;;17.40;99.90;;;;;;5047510;28;20417;-76
2021/06/21 03:07:12;;;;;;;5.20;3.07;;;17.40;99.90;;;;;;5051368;28;20505;-75
2021/06/21 03:09:42;;;;;;;6.73;3.13;;;17.40;99.90;;;;;;5050641;28;20804;-76
2021/06/21 03:12:08;;;;;;;6.60;2.93;;;17.30;99.90;;;;;;5041269;28;20448;-76
2021/06/21 03:14:34;;;;;;;5.97;3.00;;;17.30;99.90;;;;;;5042949;28;20429;-77
2021/06/21 03:17:06;;;;;;;8.43;3.53;;;17.30;99.90;;;;;;5041323;28;20468;-76
2021/06/21 03:19:32;;;;;;;9.93;4.00;;;17.30;99.90;;;;;;5049688;28;20496;-78
2021/06/21 03:21:57;;;;;;;8.13;3.07;;;17.30;99.90;;;;;;5041821;28;20454;-77
2021/06/21 03:24:24;;;;;;;11.57;3.73;;;17.30;99.90;;;;;;5044986;28;20451;-78
2021/06/21 03:26:50;;;;;;;5.10;2.80;;;17.30;99.90;;;;;;5045032;28;20178;-78
2021/06/21 03:29:18;;;;;;;6.57;2.87;;;17.20;99.90;;;;;;5036142;28;20433;-77
2021/06/21 03:31:45;;;;;;;11.40;3.57;;;17.20;99.90;;;;;;5032759;28;20190;-78
2021/06/21 03:34:12;;;;;;;7.00;3.10;;;17.30;99.90;;;;;;5040176;28;20493;-78
2021/06/21 03:36:38;;;;;;;9.77;4.10;;;17.30;99.90;;;;;;5035201;28;20470;-76
2021/06/21 03:39:04;;;;;;;9.43;3.40;;;17.30;99.90;;;;;;5041606;28;20815;-76
2021/06/21 03:41:30;;;;;;;7.77;3.27;;;17.30;99.90;;;;;;5030706;28;20489;-76
2021/06/21 03:43:56;;;;;;;11.23;3.73;;;17.30;99.90;;;;;;5041724;28;20440;-77
2021/06/21 03:46:21;;;;;;;8.10;3.73;;;17.20;99.90;;;;;;5038689;28;20261;-77
2021/06/21 03:48:47;;;;;;;7.53;4.03;;;17.20;99.90;;;;;;5037639;28;20195;-76
2021/06/21 03:51:12;;;;;;;10.03;4.20;;;17.20;99.90;;;;;;5042812;28;20194;-77
2021/06/21 03:53:38;;;;;;;11.13;4.00;;;17.20;99.90;;;;;;5038217;28;20268;-78
2021/06/21 03:56:04;;;;;;;8.77;3.70;;;17.20;99.90;;;;;;5043746;28;20297;-76
2021/06/21 03:58:29;;;;;;;5.57;3.60;;;17.20;99.90;;;;;;5039051;28;20636;-76
2021/06/21 04:00:55;;;;;;;10.40;3.67;;;17.20;99.90;;;;;;5045986;28;20182;-76
2021/06/21 04:03:23;;;;;;;5.80;3.90;;;17.20;99.90;;;;;;5037182;28;20199;-76
2021/06/21 04:05:49;;;;;;;6.93;4.20;;;17.30;99.90;;;;;;5033061;28;20183;-76
2021/06/21 04:08:16;;;;;;;7.93;4.10;;;17.30;99.90;;;;;;5041318;28;20421;-76
2021/06/21 04:10:47;;;;;;;14.90;5.50;;;17.20;99.90;;;;;;5037622;28;20906;-76
2021/06/21 04:13:14;;;;;;;8.70;4.30;;;17.30;99.90;;;;;;5044097;28;20444;-76
2021/06/21 04:15:40;;;;;;;8.83;3.77;;;17.40;99.90;;;;;;5037428;28;20568;-76
2021/06/21 04:18:08;;;;;;;8.20;4.07;;;17.40;99.90;;;;;;5045809;28;20543;-76
2021/06/21 04:20:35;;;;;;;7.77;4.27;;;17.40;99.90;;;;;;5036992;28;20608;-76
2021/06/21 04:23:01;;;;;;;9.40;4.50;;;17.50;99.90;;;;;;5023586;28;20549;-76
2021/06/21 04:25:27;;;;;;;11.37;5.30;;;17.50;99.90;;;;;;5041182;28;20422;-76
2021/06/21 04:27:53;;;;;;;6.73;4.40;;;17.50;99.90;;;;;;5017199;28;20445;-76
2021/06/21 04:30:21;;;;;;;8.80;4.00;;;17.60;99.90;;;;;;5044091;28;20264;-76
2021/06/21 04:32:47;;;;;;;5.90;3.90;;;17.60;99.90;;;;;;5037209;28;20449;-76
2021/06/21 04:35:15;;;;;;;7.67;3.87;;;17.60;99.90;;;;;;5037749;28;20470;-76
2021/06/21 04:37:41;;;;;;;6.33;4.70;;;17.70;99.90;;;;;;5041256;28;20425;-76
2021/06/21 04:40:09;;;;;;;9.33;4.67;;;17.70;99.90;;;;;;5038375;28;20418;-76
2021/06/21 04:42:35;;;;;;;6.40;5.13;;;17.70;99.90;;;;;;5040504;28;20217;-76
2021/06/21 04:45:01;;;;;;;12.43;4.57;;;17.70;99.90;;;;;;5037687;28;20429;-76
2021/06/21 04:47:26;;;;;;;6.83;4.00;;;17.70;99.90;;;;;;5030838;28;20243;-75
2021/06/21 04:49:54;;;;;;;10.40;4.27;;;17.80;99.90;;;;;;5037747;28;20429;-75
2021/06/21 04:52:22;;;;;;;7.33;4.40;;;17.80;99.90;;;;;;5039095;28;20371;-75
2021/06/21 04:54:48;;;;;;;8.03;4.10;;;17.80;99.90;;;;;;5027205;28;20433;-75
2021/06/21 04:57:14;;;;;;;7.33;4.13;;;17.80;99.90;;;;;;5039236;28;20552;-76
2021/06/21 04:59:39;;;;;;;7.50;4.47;;;17.80;99.90;;;;;;5040445;28;20520;-76
2021/06/21 05:02:05;;;;;;;11.30;4.77;;;17.80;99.90;;;;;;5039625;28;20199;-75
2021/06/21 05:04:31;;;;;;;8.60;3.80;;;17.80;99.90;;;;;;5040541;28;20182;-75
2021/06/21 05:06:56;;;;;;;9.73;5.10;;;17.90;99.90;;;;;;5037756;28;20187;-76
2021/06/21 05:09:22;;;;;;;9.23;4.73;;;18.00;99.90;;;;;;5039234;28;20191;-76
2021/06/21 05:11:48;;;;;;;12.93;4.20;;;18.00;99.90;;;;;;5039011;28;20190;-76
2021/06/21 05:14:13;;;;;;;5.57;4.10;;;18.10;99.90;;;;;;5039331;28;20210;-76
2021/06/21 05:16:39;;;;;;;6.37;4.33;;;18.10;99.90;;;;;;5039878;28;20206;-75
2021/06/21 05:19:06;;;;;;;9.87;4.40;;;18.20;99.90;;;;;;5039647;28;20605;-76
2021/06/21 05:21:33;;;;;;;8.33;4.20;;;18.20;99.90;;;;;;5035884;28;20201;-74
2021/06/21 05:23:58;;;;;;;9.63;4.63;;;18.30;99.90;;;;;;5022641;28;20420;-76
2021/06/21 05:26:24;;;;;;;5.87;4.10;;;18.30;99.90;;;;;;5031556;28;20661;-76
2021/06/21 05:28:49;;;;;;;9.63;5.30;;;18.30;99.90;;;;;;5039906;28;20324;-76
2021/06/21 05:31:15;;;;;;;8.90;3.80;;;18.30;99.90;;;;;;5036777;28;20222;-76
2021/06/21 05:33:43;;;;;;;6.63;3.97;;;18.20;99.90;;;;;;5039547;28;20214;-76
2021/06/21 05:36:08;;;;;;;7.80;4.20;;;18.30;99.90;;;;;;5034233;28;20334;-75
2021/06/21 05:38:34;;;;;;;9.73;4.30;;;18.40;99.90;;;;;;5039127;28;20570;-75
2021/06/21 05:41:00;;;;;;;9.10;4.60;;;18.40;99.90;;;;;;5040108;28;20182;-76
2021/06/21 05:43:25;;;;;;;7.07;4.00;;;18.50;99.90;;;;;;5037159;28;20328;-76
2021/06/21 05:45:51;;;;;;;11.80;5.17;;;18.50;99.90;;;;;;5029471;28;20647;-76
2021/06/21 05:48:16;;;;;;;5.03;4.10;;;18.70;99.90;;;;;;5032950;28;20273;-75
2021/06/21 05:50:42;;;;;;;6.47;4.80;;;18.70;99.90;;;;;;5028478;28;20290;-76
2021/06/21 05:53:08;;;;;;;8.00;3.67;;;18.70;99.90;;;;;;5037029;28;20218;-76
2021/06/21 05:55:34;;;;;;;5.90;3.60;;;18.70;99.90;;;;;;5040197;28;20464;-76
2021/06/21 05:58:01;;;;;;;7.17;4.57;;;18.80;99.90;;;;;;5026880;28;20186;-76
2021/06/21 06:00:27;;;;;;;5.57;3.70;;;19.00;99.90;;;;;;5039262;28;20177;-75
2021/06/21 06:02:53;;;;;;;7.73;4.77;;;19.00;99.90;;;;;;5041388;28;20494;-75
2021/06/21 06:05:18;;;;;;;6.20;3.20;;;19.10;99.90;;;;;;5036764;28;20421;-75
2021/06/21 06:07:45;;;;;;;6.07;3.90;;;19.20;99.90;;;;;;5025045;28;20183;-76
2021/06/21 06:10:11;;;;;;;6.30;3.60;;;19.30;99.90;;;;;;5029138;28;20709;-76
2021/06/21 06:12:37;;;;;;;5.87;3.80;;;19.30;99.90;;;;;;5032564;28;20432;-77
2021/06/21 06:15:03;;;;;;;9.00;3.90;;;19.30;99.90;;;;;;5038683;28;20984;-76
2021/06/21 06:17:29;;;;;;;4.70;3.33;;;19.30;99.90;;;;;;5039925;28;20546;-78
2021/06/21 06:19:55;;;;;;;6.00;3.43;;;19.30;99.90;;;;;;5039103;28;20443;-75
2021/06/21 06:22:21;;;;;;;6.60;4.17;;;19.20;99.90;;;;;;5023661;28;20215;-75
2021/06/21 06:24:47;;;;;;;4.93;3.97;;;19.30;99.90;;;;;;5038922;28;20178;-75
2021/06/21 06:27:12;;;;;;;5.80;3.83;;;19.30;99.90;;;;;;5035923;28;20644;-75
2021/06/21 06:29:38;;;;;;;5.70;4.33;;;19.30;99.90;;;;;;5037820;28;20440;-76
2021/06/21 06:32:05;;;;;;;6.87;3.80;;;19.20;99.90;;;;;;5038699;28;20209;-77
2021/06/21 06:34:31;;;;;;;4.90;3.60;;;19.20;99.90;;;;;;5036007;28;20719;-76
2021/06/21 06:36:57;;;;;;;5.60;3.63;;;19.20;99.90;;;;;;5044320;28;20468;-76
2021/06/21 06:39:23;;;;;;;7.43;4.33;;;19.20;99.90;;;;;;5036246;28;20409;-76
2021/06/21 06:41:49;;;;;;;5.27;3.90;;;19.20;99.90;;;;;;5035565;28;20195;-76
2021/06/21 06:44:14;;;;;;;9.30;3.90;;;19.20;99.90;;;;;;5043901;28;20924;-77
2021/06/21 06:46:41;;;;;;;4.63;3.67;;;19.20;99.90;;;;;;5028508;28;20304;-76
2021/06/21 06:49:07;;;;;;;4.07;3.40;;;19.30;99.90;;;;;;5026053;28;20687;-76
2021/06/21 06:51:41;;;;;;;7.53;3.50;;;19.40;99.90;;;;;;5032825;28;20432;-76
2021/06/21 06:56:59;;;;;;;5.30;3.00;;;19.40;99.90;;;;;;5029222;28;20483;-75
2021/06/21 06:59:29;;;;;;;9.40;3.50;;;19.50;99.90;;;;;;5028011;28;20436;-75
2021/06/21 07:01:56;;;;;;;8.20;3.20;;;19.50;99.90;;;;;;5039917;28;20956;-76
2021/06/21 07:04:21;;;;;;;5.67;2.80;;;19.50;99.90;;;;;;5036006;28;20924;-75
2021/06/21 07:06:47;;;;;;;6.07;4.17;;;19.60;99.90;;;;;;5028238;28;20479;-77
2021/06/21 07:09:13;;;;;;;3.90;2.70;;;19.60;99.90;;;;;;5037236;28;20217;-76
2021/06/21 07:11:39;;;;;;;4.43;2.50;;;19.70;99.90;;;;;;5025596;28;20720;-76
2021/06/21 07:14:05;;;;;;;6.07;3.33;;;19.70;99.90;;;;;;5029722;28;20192;-75
2021/06/21 07:16:33;;;;;;;5.23;3.20;;;19.70;99.90;;;;;;5034580;28;20504;-76
2021/06/21 07:18:58;;;;;;;3.00;2.70;;;19.80;99.90;;;;;;5035418;28;20413;-76
2021/06/21 07:21:24;;;;;;;6.13;3.00;;;19.80;99.90;;;;;;5029233;28;20492;-76
2021/06/21 07:23:50;;;;;;;2.97;2.67;;;19.90;99.90;;;;;;5021570;28;20285;-76
2021/06/21 07:26:15;;;;;;;4.63;3.27;;;20.10;99.90;;;;;;5029704;28;20184;-76
2021/06/21 07:28:41;;;;;;;3.77;3.40;;;20.10;99.90;;;;;;5036724;28;20218;-77
2021/06/21 07:31:06;;;;;;;4.20;2.80;;;20.10;99.90;;;;;;5039068;28;20227;-78
2021/06/21 07:33:32;;;;;;;4.77;3.27;;;20.10;99.90;;;;;;5031160;28;20213;-77
2021/06/21 07:35:58;;;;;;;4.40;3.20;;;20.10;99.90;;;;;;5042315;28;20574;-76
2021/06/21 07:38:24;;;;;;;4.10;3.13;;;20.00;99.90;;;;;;5032283;28;20221;-75
2021/06/21 07:40:50;;;;;;;4.90;2.97;;;20.00;99.90;;;;;;5038528;28;20452;-77
2021/06/21 07:43:16;;;;;;;7.43;3.17;;;20.20;99.90;;;;;;5043444;28;20213;-78
2021/06/21 07:45:42;;;;;;;5.00;2.77;;;20.40;99.90;;;;;;5048242;28;20735;-76
2021/06/21 07:48:08;;;;;;;3.83;3.00;;;20.50;99.90;;;;;;5041070;28;20190;-77
2021/06/21 07:50:34;;;;;;;3.30;2.83;;;20.50;99.90;;;;;;5020074;28;20754;-77
2021/06/21 07:53:02;;;;;;;6.37;3.70;;;20.50;99.90;;;;;;5045886;28;20214;-77
2021/06/21 07:55:28;;;;;;;4.40;2.70;;;20.50;99.90;;;;;;5032965;28;20216;-77
2021/06/21 07:57:55;;;;;;;2.73;2.53;;;20.60;99.90;;;;;;5036155;28;20483;-77
2021/06/21 08:00:23;;;;;;;9.07;3.70;;;20.50;99.90;;;;;;5037755;28;20511;-76
2021/06/21 08:02:50;;;;;;;4.40;3.40;;;20.40;99.90;;;;;;5031915;28;20438;-76
2021/06/21 08:05:16;;;;;;;4.70;2.67;;;20.40;99.90;;;;;;5040024;28;21001;-76
2021/06/21 08:07:42;;;;;;;3.83;2.40;;;20.40;99.90;;;;;;5039226;28;20543;-76
2021/06/21 08:10:08;;;;;;;4.67;3.13;;;20.60;99.90;;;;;;5039167;28;20564;-76
2021/06/21 08:12:34;;;;;;;4.23;3.03;;;20.80;99.90;;;;;;5034817;28;20457;-76
2021/06/21 08:15:00;;;;;;;4.23;3.00;;;20.80;99.90;;;;;;5040233;28;20429;-77
2021/06/21 08:17:25;;;;;;;4.33;2.63;;;20.90;99.90;;;;;;5026697;28;20208;-78
2021/06/21 08:19:51;;;;;;;4.33;2.90;;;20.90;99.90;;;;;;5037995;28;20214;-77
2021/06/21 08:22:21;;;;;;;3.70;3.33;;;21.00;99.90;;;;;;5024177;28;20221;-76
2021/06/21 08:24:48;;;;;;;2.80;2.60;;;21.00;99.90;;;;;;5042810;28;20190;-76
2021/06/21 08:27:14;;;;;;;3.37;2.53;;;20.80;99.90;;;;;;5031920;28;20425;-77
2021/06/21 08:29:39;;;;;;;4.40;2.37;;;20.70;99.90;;;;;;5041542;28;20475;-76
2021/06/21 08:32:05;;;;;;;4.80;2.87;;;20.60;99.90;;;;;;5032565;28;20207;-76
2021/06/21 08:34:31;;;;;;;3.20;2.63;;;20.70;99.90;;;;;;5030049;28;20200;-77
2021/06/21 08:36:56;;;;;;;3.07;2.80;;;20.70;99.90;;;;;;5026588;28;20381;-76
2021/06/21 08:39:22;;;;;;;3.33;2.13;;;20.90;99.90;;;;;;5032864;28;20179;-76
2021/06/21 08:41:48;;;;;;;4.37;2.43;;;21.10;99.90;;;;;;5037099;28;20187;-76
2021/06/21 08:44:13;;;;;;;3.63;2.63;;;21.30;99.90;;;;;;5046622;28;20240;-77
2021/06/21 08:46:41;;;;;;;2.77;2.10;;;21.40;99.90;;;;;;5030964;28;20425;-76
2021/06/21 08:49:09;;;;;;;3.33;1.90;;;21.40;99.90;;;;;;5024103;28;20326;-75
2021/06/21 08:51:36;;;;;;;5.07;2.03;;;21.40;99.90;;;;;;5042406;28;20630;-75
2021/06/21 08:54:02;;;;;;;2.60;1.67;;;21.70;99.90;;;;;;5037752;28;20427;-76
2021/06/21 08:56:28;;;;;;;2.97;2.23;;;21.90;99.90;;;;;;5033093;28;20465;-75
2021/06/21 08:58:53;;;;;;;4.30;2.57;;;22.10;99.90;;;;;;5033477;28;20783;-76
2021/06/21 09:01:19;;;;;;;3.53;2.73;;;22.00;99.90;;;;;;5036924;28;20182;-76
2021/06/21 09:03:47;;;;;;;3.20;2.33;;;21.70;99.90;;;;;;5029523;28;20668;-76
2021/06/21 09:06:20;;;;;;;2.67;2.47;;;21.60;99.90;;;;;;5039951;28;20468;-76
2021/06/21 09:08:54;;;;;;;6.10;2.53;;;21.30;99.90;;;;;;5039288;28;20432;-76
2021/06/21 09:11:20;;;;;;;10.10;3.10;;;21.30;99.90;;;;;;5038672;28;20429;-76
2021/06/21 09:13:47;;;;;;;6.60;2.30;;;21.20;99.90;;;;;;5046348;28;20452;-76
2021/06/21 09:16:13;;;;;;;3.40;2.50;;;21.30;99.90;;;;;;5036158;28;20466;-76
2021/06/21 09:18:39;;;;;;;3.33;3.03;;;21.30;99.90;;;;;;5032753;28;20490;-76
2021/06/21 09:21:29;;;;;;;2.90;2.30;;;21.50;99.90;;;;;;5038401;28;20201;-76
2021/06/21 09:23:58;;;;;;;3.90;3.17;;;21.50;99.90;;;;;;5024085;28;20464;-75
2021/06/21 09:26:32;;;;;;;3.23;2.50;;;21.50;99.90;;;;;;5039719;28;20434;-76
2021/06/21 09:28:59;;;;;;;2.97;2.40;;;21.50;99.90;;;;;;5041696;28;20760;-76
2021/06/21 09:31:27;;;;;;;4.23;3.13;;;21.50;99.90;;;;;;5027774;28;20437;-76
2021/06/21 09:33:53;;;;;;;2.80;2.00;;;21.50;99.90;;;;;;5026005;28;20457;-77
2021/06/21 09:36:33;;;;;;;4.37;2.80;;;21.80;99.90;;;;;;5033266;28;20843;-76
2021/06/21 09:39:20;;;;;;;8.00;2.77;;;21.90;99.90;;;;;;5036147;28;20422;-76
2021/06/21 09:42:10;;;;;;;4.07;2.80;;;22.10;99.90;;;;;;5029499;28;20423;-76
2021/06/21 09:45:02;;;;;;;3.10;2.90;;;22.10;99.90;;;;;;5025626;28;20413;-77
2021/06/21 09:47:34;;;;;;;3.73;2.60;;;22.10;99.90;;;;;;5027924;28;20458;-77
2021/06/21 09:50:26;;;;;;;6.80;2.77;;;22.10;99.90;;;;;;5026598;28;20942;-76
2021/06/21 09:52:52;;;;;;;3.00;2.30;;;22.10;99.90;;;;;;5035634;28;20436;-76
2021/06/21 09:55:40;;;;;;;2.80;2.60;;;22.10;99.90;;;;;;5032622;28;20528;-76
2021/06/21 09:58:21;;;;;;;4.83;3.20;;;22.10;99.90;;;;;;5038767;28;20193;-76
2021/06/21 10:00:52;;;;;;;4.37;3.00;;;22.30;99.90;;;;;;5038210;28;20802;-76
2021/06/21 10:03:25;;;;;;;3.87;3.57;;;22.30;99.90;;;;;;5043382;28;20456;-78
2021/06/21 10:06:00;;;;;;;4.80;2.73;;;22.40;99.90;;;;;;5033253;28;20430;-76
2021/06/21 10:08:42;;;;;;;3.07;2.67;;;22.20;99.90;;;;;;5031163;28;20433;-76
2021/06/21 10:11:30;;;;;;;2.50;2.27;;;22.20;99.90;;;;;;5037259;28;20416;-77
2021/06/21 10:14:00;;;;;;;6.43;3.00;;;22.30;99.90;;;;;;5038723;28;20539;-78
2021/06/21 10:16:27;;;;;;;3.53;2.43;;;22.40;99.90;;;;;;5027378;28;20811;-77
2021/06/21 10:18:53;;;;;;;3.20;2.40;;;22.50;99.90;;;;;;5038305;28;20421;-76
2021/06/21 10:21:19;;;;;;;4.53;3.43;;;22.50;99.90;;;;;;5038229;28;20418;-78
2021/06/21 10:23:45;;;;;;;3.00;2.70;;;22.50;99.90;;;;;;5027965;28;20451;-76
2021/06/21 10:26:11;;;;;;;3.00;2.67;;;22.50;99.90;;;;;;5021548;28;20446;-79
2021/06/21 10:28:37;;;;;;;4.37;3.30;;;22.40;99.90;;;;;;5033365;28;20194;-75
2021/06/21 10:31:03;;;;;;;4.20;2.87;;;22.50;99.90;;;;;;5033876;28;20195;-73
2021/06/21 10:33:31;;;;;;;4.07;2.43;;;22.50;99.90;;;;;;5036738;28;20233;-75
2021/06/21 10:36:06;;;;;;;7.33;2.50;;;22.60;99.90;;;;;;5038561;28;20474;-74
2021/06/21 10:38:33;;;;;;;3.60;3.10;;;22.60;99.90;;;;;;5020315;28;20490;-74
2021/06/21 10:41:05;;;;;;;3.13;2.80;;;22.70;99.90;;;;;;5034376;28;20432;-74
2021/06/21 10:43:43;;;;;;;3.70;2.77;;;22.80;99.90;;;;;;5025631;28;20548;-74
2021/06/21 10:46:18;;;;;;;3.63;2.77;;;22.60;99.90;;;;;;5035813;28;20443;-74
2021/06/21 10:49:07;;;;;;;3.53;2.70;;;22.60;99.90;;;;;;5035134;28;20456;-73
2021/06/21 10:51:33;;;;;;;3.07;2.20;;;22.60;99.90;;;;;;5028370;28;20440;-72
2021/06/21 10:54:00;;;;;;;4.97;2.87;;;22.80;99.90;;;;;;5031721;28;20444;-75
2021/06/21 10:56:52;;;;;;;3.30;2.50;;;22.80;99.90;;;;;;5009084;28;20609;-73
2021/06/21 10:59:23;;;;;;;3.57;2.30;;;23.10;99.90;;;;;;5022906;28;20943;-76
2021/06/21 11:01:51;;;;;;;4.00;2.47;;;23.40;99.90;;;;;;5041799;28;20426;-74
2021/06/21 11:04:32;;;;;;;3.80;2.63;;;23.30;99.90;;;;;;5040422;28;20458;-81
2021/06/21 11:07:15;;;;;;;4.13;2.80;;;23.30;99.90;;;;;;5031372;28;20474;-77
2021/06/21 11:09:47;;;;;;;2.67;2.30;;;23.30;99.90;;;;;;5029674;28;20425;-77
2021/06/21 11:12:22;;;;;;;2.53;2.30;;;23.30;99.90;;;;;;5032672;28;20533;-74
2021/06/21 11:15:11;;;;;;;3.67;2.57;;;23.20;99.90;;;;;;5038580;28;20814;-75
2021/06/21 11:17:57;;;;;;;2.57;2.37;;;23.30;99.90;;;;;;5023726;28;20431;-72
2021/06/21 11:20:44;;;;;;;2.90;2.50;;;23.20;99.90;;;;;;5040734;28;20773;-74
2021/06/21 11:23:40;;;;;;;4.87;2.87;;;23.10;99.90;;;;;;5024676;28;20484;-78
2021/06/21 11:26:05;;;;;;;4.40;2.73;;;23.30;99.90;;;;;;5034629;28;20550;-75
2021/06/21 11:28:39;;;;;;;3.27;2.90;;;23.40;99.90;;;;;;5041745;28;20456;-75
2021/06/21 11:31:23;;;;;;;4.90;2.80;;;23.40;99.90;;;;;;5036385;28;20195;-79
2021/06/21 11:33:50;;;;;;;4.07;3.13;;;23.20;99.90;;;;;;5038775;28;21042;-75
2021/06/21 11:36:39;;;;;;;2.80;2.17;;;23.40;99.90;;;;;;5033595;28;20844;-73
2021/06/21 11:39:27;;;;;;;3.77;2.30;;;23.50;99.90;;;;;;5044444;28;20417;-74
2021/06/21 11:42:05;;;;;;;3.80;3.00;;;23.70;99.90;;;;;;5038064;28;20942;-73
2021/06/21 11:44:36;;;;;;;5.27;2.60;;;23.70;99.90;;;;;;5034061;28;20425;-74
2021/06/21 11:47:22;;;;;;;3.40;2.60;;;23.70;99.90;;;;;;5033658;28;21062;-73
2021/06/21 11:49:50;;;;;;;2.83;2.50;;;23.70;99.90;;;;;;5044177;28;20982;-75
2021/06/21 11:52:24;;;;;;;3.03;2.73;;;23.80;99.90;;;;;;5027155;28;20431;-74
2021/06/21 11:54:51;;;;;;;3.80;2.93;;;24.00;99.90;;;;;;5040423;28;20474;-75
2021/06/21 11:57:19;;;;;;;2.97;2.50;;;24.10;99.90;;;;;;5035013;28;20481;-75
2021/06/21 11:59:49;;;;;;;4.33;2.47;;;24.10;99.90;;;;;;5035105;28;20431;-75
2021/06/21 12:02:23;;;;;;;3.50;3.20;;;24.00;99.90;;;;;;5037673;28;20441;-75
2021/06/21 12:04:54;;;;;;;3.83;2.73;;;24.20;99.90;;;;;;5027767;28;20421;-75
2021/06/21 12:07:33;;;;;;;3.10;2.80;;;24.50;99.90;;;;;;5032804;28;20426;-75
2021/06/21 12:10:07;;;;;;;2.40;2.20;;;24.80;99.90;;;;;;5040567;28;20421;-74
2021/06/21 12:12:38;;;;;;;4.67;2.87;;;25.00;99.90;;;;;;5038637;28;20463;-74
2021/06/21 12:15:10;;;;;;;2.30;2.10;;;25.30;99.90;;;;;;5039948;28;20769;-75
2021/06/21 12:17:36;;;;;;;2.93;2.60;;;25.60;99.90;;;;;;5032685;28;20474;-69
2021/06/21 12:20:05;;;;;;;3.40;2.50;;;26.10;99.90;;;;;;5024481;28;20825;-69
2021/06/21 12:22:31;;;;;;;2.90;2.70;;;26.20;99.90;;;;;;5023305;28;20227;-69
2021/06/21 12:24:57;;;;;;;2.70;2.33;;;26.40;99.90;;;;;;5041756;28;20495;-70
2021/06/21 12:27:23;;;;;;;2.10;2.00;;;26.30;99.90;;;;;;5036822;28;20923;-70
2021/06/21 12:29:49;;;;;;;2.90;2.70;;;26.50;99.90;;;;;;5039994;28;20440;-68
2021/06/21 12:32:16;;;;;;;3.10;2.50;;;26.90;99.90;;;;;;5038836;28;20236;-68
2021/06/21 12:34:49;;;;;;;4.10;3.10;;;27.00;99.90;;;;;;5033786;28;20191;-69
2021/06/21 12:37:37;;;;;;;3.10;2.90;;;27.40;99.90;;;;;;5038754;28;20464;-69
2021/06/21 12:40:12;;;;;;;3.13;2.63;;;27.50;99.90;;;;;;5030126;28;20964;-68
2021/06/21 12:42:38;;;;;;;2.50;2.30;;;27.50;99.90;;;;;;5040019;28;20448;-69
2021/06/21 12:45:14;;;;;;;3.23;2.40;;;27.70;99.90;;;;;;5039503;28;20798;-69
2021/06/21 12:47:44;;;;;;;5.03;2.43;;;27.30;99.90;;;;;;5039637;28;20190;-69
2021/06/21 12:50:12;;;;;;;2.40;2.03;;;27.10;99.90;;;;;;5025648;28;20977;-70
2021/06/21 12:52:45;;;;;;;2.77;2.50;;;27.60;99.90;;;;;;5027650;28;20452;-70
2021/06/21 12:55:13;;;;;;;2.30;2.10;;;27.30;99.90;;;;;;5037880;28;20709;-70
2021/06/21 12:57:44;;;;;;;2.57;2.40;;;26.90;99.90;;;;;;5039622;28;20408;-76